NCAR-RAP Real-Time Weather Data

Output produced by METARs form (12 August 2020  18:25 UTC)
found at http://weather.rap.ucar.edu/surface/
 
KCMH 121751Z 00000KT 10SM SCT047 BKN250 29/17 A3007 RMK AO2 SLP177 T02940172 10306 20228 58005
KCMH 121651Z 00000KT 10SM SCT045 BKN250 29/18 A3008 RMK AO2 SLP179 T02890178
KCMH 121551Z VRB03KT 9SM SCT043 BKN250 28/17 A3009 RMK AO2 SLP181 T02830172
KCMH 121451Z 00000KT 10SM SCT042 BKN250 27/20 A3009 RMK AO2 SLP182 T02720200 50002
KCMH 121351Z 35003KT 10SM SCT050 SCT060 BKN250 26/21 A3009 RMK AO2 SLP183 T02560206
KCMH 121251Z 35003KT 10SM SCT050 BKN250 24/20 A3010 RMK AO2 SLP184 T02440200
KCMH 121151Z 00000KT 10SM SCT050 BKN250 23/20 A3008 RMK AO2 SLP180 T02280200 10228 20206 53013
KCMH 121051Z 00000KT 10SM BKN050 BKN250 22/19 A3007 RMK AO2 SLP174 T02170194
KCMH 120951Z 00000KT 10SM OVC043 22/19 A3005 RMK AO2 SLP169 T02170194
KCMH 120851Z 00000KT 10SM OVC040 21/19 A3005 RMK AO2 SLP167 T02110194 53005
KCMH 120751Z 00000KT 10SM BKN041 21/19 A3004 RMK AO2 SLP165 T02110194
KCMH 120651Z 00000KT 10SM BKN039 21/19 A3003 RMK AO2 SLP162 T02110194
KCMH 120551Z 00000KT 10SM FEW040 FEW250 22/19 A3003 RMK AO2 SLP162 T02170194 10278 20217 51007
KCMH 120451Z 03003KT 10SM FEW039 FEW250 23/19 A3003 RMK AO2 SLP162 T02280194 403000217
KCMH 120351Z 00000KT 10SM FEW049 FEW250 24/20 A3002 RMK AO2 SLP159 T02390200
KCMH 120251Z 09003KT 10SM FEW049 SCT250 24/19 A3001 RMK AO2 SLP156 T02440194 51015
KCMH 120151Z 02004KT 10SM SCT037 BKN050 BKN250 26/19 A3000 RMK AO2 SLP154 T02560194
KCMH 120051Z 34005KT 10SM SCT048 SCT250 26/19 A2998 RMK AO2 SLP146 T02610189
KCMH 112351Z 33009KT 10SM BKN046 BKN250 28/19 A2997 RMK AO2 SLP140 T02780194 10300 20267 55001
KCMH 112251Z 25008KT 10SM BKN046 BKN250 28/19 A2996 RMK AO2 SLP137 T02830189
KCMH 112151Z 24007KT 200V270 10SM SCT043 SCT250 29/19 A2996 RMK AO2 SLP138 T02940194
KCMH 112051Z VRB03KT 10SM SCT039 SCT250 29/19 A2997 RMK AO2 SLP140 T02890189 58009
KCMH 111951Z 25009KT 10SM SCT037 BKN250 29/19 A2998 RMK AO2 SLP144 T02890194
KCMH 111851Z 23006KT 10SM BKN034 BKN250 28/19 A2999 RMK AO2 SLP147 T02830194
KCMH 111751Z 22007KT 10SM BKN031 BKN250 28/19 A2999 RMK AO2 SLP149 T02780194 10278 20217 58005
KCMH 111722Z 22008KT 10SM BKN028 BKN250 26/19 A3000 RMK AO2 T02610189
KCMH 111651Z 25008KT 10SM SCT026 BKN140 BKN250 26/19 A3000 RMK AO2 SLP154 T02560194
KCMH 111630Z 27005KT 10SM SCT023 BKN140 BKN250 26/19 A3000 RMK AO2 T02560194
KCMH 111551Z 29007KT 10SM OVC023 25/20 A3001 RMK AO2 SLP153 T02500200
KCMH 111451Z 27009KT 10SM BKN020 OVC035 24/19 A3001 RMK AO2 SLP154 T02390194 53009
KCMH 111351Z 27006KT 10SM SCT015 BKN033 BKN130 OVC250 23/19 A3000 RMK AO2 SLP150 T02280194
KCMH 111251Z 29007KT 10SM BKN031 BKN130 OVC250 23/19 A2999 RMK AO2 SLP148 T02330194
KCMH 111151Z 26004KT 10SM FEW011 BKN130 22/19 A2998 RMK AO2 SLP145 70001 T02220189 10228 20217 51021 $
KCMH 111051Z 27006KT 10SM FEW120 OVC140 22/19 A2997 RMK AO2 SLP143 T02170189 $
KCMH 110951Z 25003KT 10SM FEW110 OVC130 22/20 A2995 RMK AO2 SLP134 T02220200 $
KCMH 110851Z 00000KT 10SM OVC130 22/20 A2992 RMK AO2 SLP122 T02170200 53005 $
KCMH 110751Z 21005KT 10SM OVC150 22/20 A2991 RMK AO2 SLP119 T02220200 $
KCMH 110651Z 25007KT 10SM BKN200 22/20 A2990 RMK AO2 SLP117 T02220200
KCMH 110551Z 14004KT 10SM BKN180 22/20 A2990 RMK AO2 SLP117 60001 T02220200 10294 20222 58014
KCMH 110451Z 23006KT 10SM FEW095 BKN140 23/20 A2995 RMK AO2 RAB03E33 SLP135 P0001 T02280200 403170194
KCMH 110351Z 31013KT 10SM FEW032 BKN041 OVC060 26/19 A2997 RMK AO2 SLP140 T02610194
KCMH 110251Z 20004KT 10SM CLR 27/21 A2995 RMK AO2 LTG DSNT W SLP132 T02670211 50005
KCMH 110151Z 21005KT 10SM FEW040 28/21 A2995 RMK AO2 SLP133 T02780206
KCMH 110051Z 22008KT 10SM FEW041 28/21 A2993 RMK AO2 SLP129 T02830206
KCMH 102351Z 19008KT 10SM SCT040 29/20 A2993 RMK AO2 SLP127 T02940200 10317 20294 55007
KCMH 102251Z COR 18010KT 10SM FEW040 SCT200 30/19 A2992 RMK AO2 SLP125 T03000194
KCMH 102151Z 17010KT 10SM FEW046 BKN200 31/20 A2994 RMK AO2 SLP130 T03060200
KCMH 102051Z 16008KT 10SM SCT044 SCT060 BKN200 31/21 A2995 RMK AO2 SLP134 T03110206 58027
KCMH 101951Z 19006KT 10SM SCT042 SCT050 BKN110 BKN250 31/21 A2999 RMK AO2 SLP149 T03060211
KCMH 101851Z 18009KT 10SM SCT043 SCT050 BKN110 BKN250 30/20 A3002 RMK AO2 SLP158 T03000200